Time;durP1;ratioP1;P1;durP2;ratioP2;P2;SDS_P1;SDS_P2;PMS_P1;PMS_P2;Temp;Humidity;BMP_temperature;BMP_pressure;BME280_temperature;BME280_humidity;BME280_pressure;Samples;Min_cycle;Max_cycle;Signal;HPM_P1;HPM_P2
2022/09/23 13:48:59;;;;;;;15.63;9.37;;;;;;;;;;5129748;27;20275;-84
2022/09/23 13:51:30;;;;;;;13.50;9.70;;;;;;;;;;5093339;28;20182;-84
2022/09/23 13:53:57;;;;;;;16.58;11.50;;;;;;;;;;5146718;27;20420;-83
2022/09/23 13:56:24;;;;;;;13.90;10.50;;;;;;;;;;5113880;28;20204;-83
2022/09/23 13:58:51;;;;;;;15.37;10.40;;;;;;;;;;5113879;28;20188;-82
2022/09/23 14:01:30;;;;;;;14.47;9.80;;;;;;;;;;5097137;28;20201;-83
2022/09/23 14:03:56;;;;;;;13.40;9.80;;;;;;;;;;5113751;28;20271;-83
2022/09/23 14:06:22;;;;;;;11.40;9.57;;;;;;;;;;5096663;28;20234;-83
2022/09/23 14:08:49;;;;;;;12.83;9.57;;;;;;;;;;5112272;28;20251;-83
2022/09/23 14:11:23;;;;;;;11.63;9.00;;;;;;;;;;5089496;28;20190;-84
2022/09/23 14:13:53;;;;;;;12.27;9.50;;;;;;;;;;5112065;28;20284;-81
2022/09/23 14:16:21;;;;;;;10.37;7.93;;;;;;;;;;5112679;28;20185;-80
2022/09/23 14:18:49;;;;;;;10.40;7.50;;;;;;;;;;5112947;28;20208;-80
2022/09/23 14:21:34;;;;;;;10.10;6.93;;;;;;;;;;5111962;28;20181;-80
2022/09/23 14:24:15;;;;;;;9.27;7.10;;;;;;;;;;5112937;28;20180;-80
2022/09/23 14:26:42;;;;;;;10.43;6.43;;;;;;;;;;5113044;28;20178;-80
2022/09/23 14:29:22;;;;;;;8.80;6.53;;;;;;;;;;5113010;28;20181;-83
2022/09/23 14:31:56;;;;;;;8.10;6.63;;;;;;;;;;5111205;28;20208;-83
2022/09/23 14:34:42;;;;;;;8.03;5.97;;;;;;;;;;5131259;28;20234;-84
2022/09/23 14:40:13;;;;;;;7.53;6.47;;;;;;;;;;5110508;28;20189;-83
2022/09/23 14:42:41;;;;;;;8.53;6.00;;;;;;;;;;5105298;28;20181;-83
2022/09/23 14:45:10;;;;;;;6.97;5.60;;;;;;;;;;5109143;28;20184;-84
2022/09/23 14:47:35;;;;;;;7.67;6.07;;;;;;;;;;5112307;28;20224;-80
2022/09/23 14:52:50;;;;;;;7.00;5.20;;;;;;;;;;5117941;27;20277;-80
2022/09/23 14:55:17;;;;;;;11.07;5.93;;;;;;;;;;5090732;28;20276;-80
2022/09/23 14:57:44;;;;;;;6.43;5.60;;;;;;;;;;5093302;28;20221;-80
2022/09/23 15:00:17;;;;;;;8.90;5.27;;;;;;;;;;5079984;28;20174;-80
2022/09/23 15:03:04;;;;;;;10.57;5.23;;;;;;;;;;5079324;28;20191;-85
2022/09/23 15:05:42;;;;;;;8.10;4.57;;;;;;;;;;5089069;28;20199;-84
2022/09/23 15:08:10;;;;;;;8.17;5.10;;;;;;;;;;5098673;28;20193;-86
2022/09/23 15:10:37;;;;;;;9.90;5.30;;;;;;;;;;5098807;28;20177;-86
2022/09/23 15:13:14;;;;;;;8.33;5.20;;;;;;;;;;5081441;28;20208;-85
2022/09/23 15:15:41;;;;;;;9.87;5.07;;;;;;;;;;5116901;28;20182;-86
2022/09/23 15:18:24;;;;;;;7.00;4.73;;;;;;;;;;5116644;28;20202;-85
2022/09/23 15:20:57;;;;;;;6.80;5.10;;;;;;;;;;5116985;28;20174;-81
2022/09/23 15:23:35;;;;;;;7.50;5.00;;;;;;;;;;5098117;28;20266;-81
2022/09/23 15:26:04;;;;;;;8.73;5.27;;;;;;;;;;5098945;28;20185;-81
2022/09/23 15:28:30;;;;;;;8.77;4.70;;;;;;;;;;5098168;28;20204;-81
2022/09/23 15:30:56;;;;;;;7.63;5.17;;;;;;;;;;5098958;28;20177;-81
2022/09/23 15:33:26;;;;;;;5.37;4.77;;;;;;;;;;5098243;28;20186;-81
2022/09/23 15:35:53;;;;;;;6.73;5.23;;;;;;;;;;5098245;28;20213;-83
2022/09/23 15:38:19;;;;;;;6.90;5.07;;;;;;;;;;5098057;28;20696;-83
2022/09/23 15:40:46;;;;;;;8.83;5.07;;;;;;;;;;5081751;28;20268;-83
2022/09/23 15:43:16;;;;;;;12.50;4.80;;;;;;;;;;5094785;28;20187;-83
2022/09/23 15:46:02;;;;;;;9.10;5.20;;;;;;;;;;5089571;28;20204;-83
2022/09/23 15:48:31;;;;;;;6.97;5.10;;;;;;;;;;5105247;28;20239;-83
2022/09/23 15:51:02;;;;;;;8.90;5.30;;;;;;;;;;5097951;28;20270;-82
2022/09/23 15:53:28;;;;;;;8.83;5.53;;;;;;;;;;5115915;28;20185;-81
2022/09/23 15:55:57;;;;;;;8.37;5.60;;;;;;;;;;5098023;28;20280;-81
2022/09/23 15:58:24;;;;;;;10.00;5.60;;;;;;;;;;5081577;28;20213;-80
2022/09/23 16:00:52;;;;;;;10.40;5.40;;;;;;;;;;5116099;28;20178;-80
2022/09/23 16:03:20;;;;;;;7.60;5.57;;;;;;;;;;5115754;28;20174;-80
2022/09/23 16:05:47;;;;;;;9.37;5.53;;;;;;;;;;5097848;28;20189;-80
2022/09/23 16:08:13;;;;;;;11.00;5.33;;;;;;;;;;5098160;28;20178;-80
2022/09/23 16:10:40;;;;;;;7.40;6.20;;;;;;;;;;5096624;28;20261;-80
2022/09/23 16:13:07;;;;;;;12.33;6.60;;;;;;;;;;5080994;28;20214;-80
2022/09/23 16:15:34;;;;;;;7.73;5.77;;;;;;;;;;5097698;28;20189;-80
2022/09/23 16:18:00;;;;;;;7.77;6.10;;;;;;;;;;5097701;28;20281;-80
2022/09/23 16:20:28;;;;;;;9.43;6.50;;;;;;;;;;5077173;28;20220;-80
2022/09/23 16:22:59;;;;;;;8.67;6.00;;;;;;;;;;5094218;28;20185;-80
2022/09/23 16:25:27;;;;;;;10.13;6.23;;;;;;;;;;5097264;28;20181;-80
2022/09/23 16:27:54;;;;;;;9.43;6.70;;;;;;;;;;5098006;28;20251;-80
2022/09/23 16:30:21;;;;;;;11.93;6.40;;;;;;;;;;5097563;28;20245;-80
2022/09/23 16:32:47;;;;;;;7.30;5.40;;;;;;;;;;5080739;28;20201;-80
2022/09/23 16:35:15;;;;;;;9.33;6.40;;;;;;;;;;5097686;28;20178;-80
2022/09/23 16:37:45;;;;;;;8.80;5.93;;;;;;;;;;5097296;28;20201;-80
2022/09/23 16:40:14;;;;;;;9.77;6.47;;;;;;;;;;5097257;28;20170;-80
2022/09/23 16:42:40;;;;;;;9.00;6.37;;;;;;;;;;5080910;28;20251;-80
2022/09/23 16:45:06;;;;;;;8.97;6.70;;;;;;;;;;5097278;28;20180;-80
2022/09/23 16:47:32;;;;;;;11.00;6.33;;;;;;;;;;5097364;28;20226;-80
2022/09/23 16:49:58;;;;;;;7.80;6.20;;;;;;;;;;5080313;28;20189;-80
2022/09/23 16:52:24;;;;;;;8.80;6.50;;;;;;;;;;5080345;28;20192;-80
2022/09/23 16:54:51;;;;;;;13.27;7.23;;;;;;;;;;5080407;28;20190;-80
2022/09/23 16:57:17;;;;;;;8.37;7.37;;;;;;;;;;5080348;28;20294;-80
2022/09/23 17:05:15;;;;;;;8.67;7.70;;;;;;;;;;5099661;28;20189;-85
2022/09/23 17:07:41;;;;;;;11.30;7.50;;;;;;;;;;5080677;28;20185;-84
2022/09/23 17:10:07;;;;;;;12.27;8.13;;;;;;;;;;5096716;28;20184;-85
2022/09/23 17:12:34;;;;;;;12.02;9.20;;;;;;;;;;5075730;28;20431;-85
2022/09/23 17:15:00;;;;;;;9.98;8.80;;;;;;;;;;5075628;28;20417;-84
2022/09/23 17:17:27;;;;;;;10.02;8.93;;;;;;;;;;5095773;28;20422;-81
2022/09/23 17:19:53;;;;;;;10.52;9.35;;;;;;;;;;5079107;28;20403;-81
2022/09/23 17:22:19;;;;;;;11.35;9.93;;;;;;;;;;5095190;28;20407;-81
2022/09/23 17:24:45;;;;;;;12.93;10.25;;;;;;;;;;5075477;28;20405;-81
2022/09/23 17:27:12;;;;;;;14.10;10.20;;;;;;;;;;5093175;28;20243;-81
2022/09/23 17:29:38;;;;;;;11.27;9.70;;;;;;;;;;5079679;28;20276;-81
2022/09/23 17:32:04;;;;;;;11.17;9.90;;;;;;;;;;5076096;28;20202;-84
2022/09/23 17:34:32;;;;;;;14.63;12.48;;;;;;;;;;5092156;28;20445;-85
2022/09/23 17:36:58;;;;;;;14.88;12.00;;;;;;;;;;5092631;28;20417;-85
2022/09/23 17:39:24;;;;;;;15.55;12.18;;;;;;;;;;5092304;28;20396;-84
2022/09/23 17:41:50;;;;;;;14.37;11.50;;;;;;;;;;5093495;28;20499;-86
2022/09/23 17:44:16;;;;;;;13.60;12.20;;;;;;;;;;5096077;28;20403;-85
2022/09/23 17:46:42;;;;;;;14.52;11.60;;;;;;;;;;5078639;28;20459;-84
2022/09/23 17:49:08;;;;;;;14.38;12.07;;;;;;;;;;5095011;28;20416;-85
2022/09/23 17:51:35;;;;;;;14.55;11.60;;;;;;;;;;5078016;28;20403;-85
2022/09/23 17:54:01;;;;;;;15.30;12.23;;;;;;;;;;5075112;28;20412;-84
2022/09/23 17:56:29;;;;;;;16.80;12.65;;;;;;;;;;5078710;28;20396;-84
2022/09/23 17:58:58;;;;;;;14.98;13.43;;;;;;;;;;5095185;28;20434;-85
2022/09/23 18:01:25;;;;;;;15.10;13.57;;;;;;;;;;5095102;28;20482;-85
2022/09/23 18:03:55;;;;;;;17.80;14.43;;;;;;;;;;5078554;28;20445;-85
2022/09/23 18:06:22;;;;;;;18.08;14.30;;;;;;;;;;5094686;28;20422;-81
2022/09/23 18:08:49;;;;;;;17.55;14.68;;;;;;;;;;5113336;28;20413;-81
2022/09/23 18:11:22;;;;;;;20.17;16.48;;;;;;;;;;5078239;28;20487;-80
2022/09/23 18:13:48;;;;;;;18.65;14.63;;;;;;;;;;5113277;28;20407;-80
2022/09/23 18:16:14;;;;;;;16.13;13.03;;;;;;;;;;5113886;28;20167;-84
2022/09/23 18:18:41;;;;;;;16.27;13.35;;;;;;;;;;5095272;28;20437;-85
2022/09/23 18:21:09;;;;;;;14.17;12.63;;;;;;;;;;5095474;28;20201;-81
2022/09/23 18:23:35;;;;;;;16.23;12.73;;;;;;;;;;5079214;28;20220;-83
2022/09/23 18:26:01;;;;;;;13.40;11.97;;;;;;;;;;5096036;28;20189;-83
2022/09/23 18:28:30;;;;;;;16.60;12.60;;;;;;;;;;5075683;28;20260;-83
2022/09/23 18:30:58;;;;;;;16.70;12.53;;;;;;;;;;5095814;28;20264;-83
2022/09/23 18:33:24;;;;;;;15.70;12.70;;;;;;;;;;5113703;28;20178;-83
2022/09/23 18:35:51;;;;;;;15.63;13.97;;;;;;;;;;5099839;28;20188;-83
2022/09/23 18:38:18;;;;;;;18.47;13.30;;;;;;;;;;5082638;28;20206;-83
2022/09/23 18:40:54;;;;;;;16.53;13.97;;;;;;;;;;5099903;28;20198;-80
2022/09/23 18:43:25;;;;;;;16.43;14.30;;;;;;;;;;5097756;28;20186;-80
2022/09/23 18:45:55;;;;;;;17.47;14.60;;;;;;;;;;5096430;28;20190;-80
2022/09/23 18:51:07;;;;;;;19.48;17.23;;;;;;;;;;5081480;28;20412;-80
2022/09/23 18:53:33;;;;;;;20.83;17.75;;;;;;;;;;5078527;28;20408;-80
2022/09/23 18:56:04;;;;;;;17.10;15.37;;;;;;;;;;5096345;28;20209;-85
2022/09/23 18:58:31;;;;;;;18.97;15.47;;;;;;;;;;5096269;28;20208;-84
2022/09/23 19:01:01;;;;;;;21.47;16.50;;;;;;;;;;5082587;28;20170;-84
2022/09/23 19:03:27;;;;;;;20.53;16.93;;;;;;;;;;5098774;28;20252;-84
2022/09/23 19:05:53;;;;;;;22.90;17.50;;;;;;;;;;5082378;28;20273;-84
2022/09/23 19:08:19;;;;;;;22.73;18.13;;;;;;;;;;5082147;28;20193;-84
2022/09/23 19:10:54;;;;;;;22.60;19.33;;;;;;;;;;5082316;28;20189;-84
2022/09/23 19:13:20;;;;;;;28.10;23.38;;;;;;;;;;5116257;28;20421;-80
2022/09/23 19:15:47;;;;;;;23.17;20.13;;;;;;;;;;5081885;28;20264;-80
2022/09/23 19:18:13;;;;;;;25.93;20.43;;;;;;;;;;5098648;28;20297;-80
2022/09/23 19:20:48;;;;;;;25.00;21.37;;;;;;;;;;5099002;28;20166;-79
2022/09/23 19:23:14;;;;;;;27.08;23.30;;;;;;;;;;5116450;28;20406;-79
2022/09/23 19:25:41;;;;;;;24.57;21.97;;;;;;;;;;5082224;28;20192;-79
2022/09/23 19:28:07;;;;;;;26.60;22.60;;;;;;;;;;5080828;28;20174;-79
2022/09/23 19:30:34;;;;;;;26.90;23.00;;;;;;;;;;5076366;28;20198;-80
2022/09/23 19:33:00;;;;;;;29.53;23.60;;;;;;;;;;5082155;28;20182;-80
2022/09/23 19:35:28;;;;;;;29.07;24.90;;;;;;;;;;5095653;28;20414;-79
2022/09/23 19:37:56;;;;;;;32.33;25.13;;;;;;;;;;5081256;28;20225;-79
2022/09/23 19:40:22;;;;;;;30.27;25.10;;;;;;;;;;5098409;27;20227;-80
2022/09/23 19:42:52;;;;;;;31.37;24.77;;;;;;;;;;5080524;28;20186;-79
2022/09/23 19:45:20;;;;;;;31.13;25.37;;;;;;;;;;5097172;28;20215;-80
2022/09/23 19:47:47;;;;;;;26.70;22.07;;;;;;;;;;5092203;27;20287;-85
2022/09/23 19:50:13;;;;;;;27.30;24.27;;;;;;;;;;5077885;28;20190;-84
2022/09/23 19:52:39;;;;;;;30.53;26.00;;;;;;;;;;5095863;28;20190;-84
2022/09/23 19:55:05;;;;;;;33.97;26.10;;;;;;;;;;5077903;28;20196;-84
2022/09/23 19:57:32;;;;;;;30.43;25.20;;;;;;;;;;5102360;27;20213;-84
2022/09/23 19:59:58;;;;;;;33.63;26.87;;;;;;;;;;5092482;27;20224;-84
2022/09/23 20:02:24;;;;;;;34.60;25.47;;;;;;;;;;5097877;28;20173;-84
2022/09/23 20:04:50;;;;;;;28.90;24.97;;;;;;;;;;5095773;28;20186;-84
2022/09/23 20:07:18;;;;;;;31.13;26.33;;;;;;;;;;5069105;28;20326;-84
2022/09/23 20:09:44;;;;;;;31.90;26.83;;;;;;;;;;5097760;28;20189;-85
2022/09/23 20:12:11;;;;;;;33.67;26.47;;;;;;;;;;5126107;27;20173;-84
2022/09/23 20:14:37;;;;;;;31.67;26.37;;;;;;;;;;5084548;28;20254;-84
2022/09/23 20:17:03;;;;;;;31.53;27.53;;;;;;;;;;5094458;28;20204;-85
2022/09/23 20:19:29;;;;;;;31.70;26.50;;;;;;;;;;5061209;28;20178;-79
2022/09/23 20:22:23;;;;;;;32.83;25.97;;;;;;;;;;5076800;28;20181;-79
2022/09/23 20:24:41;;;;;;;31.27;25.40;;;;;;;;;;5100879;28;20187;-79
2022/09/23 20:27:07;;;;;;;32.50;27.00;;;;;;;;;;5081138;28;20181;-80
2022/09/23 20:29:33;;;;;;;30.40;26.33;;;;;;;;;;5080939;28;20182;-79
2022/09/23 20:31:59;;;;;;;34.27;27.37;;;;;;;;;;5080689;28;20217;-84
2022/09/23 20:34:28;;;;;;;28.33;24.77;;;;;;;;;;5080822;28;20190;-85
2022/09/23 20:36:55;;;;;;;35.53;26.23;;;;;;;;;;5081305;28;20181;-83
2022/09/23 20:39:21;;;;;;;32.47;25.33;;;;;;;;;;5115763;28;20173;-83
2022/09/23 20:41:47;;;;;;;33.13;26.07;;;;;;;;;;5077327;28;20183;-83
2022/09/23 20:44:13;;;;;;;33.87;26.77;;;;;;;;;;5077291;28;20197;-83
2022/09/23 20:46:42;;;;;;;35.83;28.10;;;;;;;;;;5084508;28;20178;-82
2022/09/23 20:49:08;;;;;;;40.37;30.00;;;;;;;;;;5080312;28;20228;-83
2022/09/23 20:51:38;;;;;;;33.03;27.77;;;;;;;;;;5093243;28;20289;-83
2022/09/23 20:54:04;;;;;;;37.20;29.70;;;;;;;;;;5082135;28;20170;-85
2022/09/23 20:56:30;;;;;;;41.03;29.73;;;;;;;;;;5091712;28;20186;-85
2022/09/23 20:59:00;;;;;;;36.83;29.60;;;;;;;;;;5084937;28;20283;-84
2022/09/23 21:01:26;;;;;;;32.83;27.47;;;;;;;;;;5092316;28;20179;-85
2022/09/23 21:03:54;;;;;;;36.63;28.10;;;;;;;;;;5076405;28;20389;-85
2022/09/23 21:06:23;;;;;;;33.97;28.73;;;;;;;;;;5082160;28;20175;-84
2022/09/23 21:08:51;;;;;;;36.17;28.00;;;;;;;;;;5083405;27;20183;-84
2022/09/23 21:11:17;;;;;;;30.70;25.87;;;;;;;;;;5097510;28;20224;-79
2022/09/23 21:13:50;;;;;;;33.03;28.00;;;;;;;;;;5080350;28;20182;-80
2022/09/23 21:16:17;;;;;;;31.83;26.23;;;;;;;;;;5097118;28;20179;-80
2022/09/23 21:18:44;;;;;;;31.73;26.33;;;;;;;;;;5080124;28;20214;-80
2022/09/23 21:21:11;;;;;;;30.80;26.73;;;;;;;;;;5096845;28;20205;-80
2022/09/23 21:23:38;;;;;;;34.87;27.53;;;;;;;;;;5080041;28;20185;-79
2022/09/23 21:26:09;;;;;;;33.03;27.60;;;;;;;;;;5097096;28;20174;-84
2022/09/23 21:28:36;;;;;;;35.13;28.13;;;;;;;;;;5080907;28;20182;-84
2022/09/23 21:31:03;;;;;;;30.73;26.43;;;;;;;;;;5113598;28;20178;-85
2022/09/23 21:33:30;;;;;;;32.73;27.17;;;;;;;;;;5096485;28;20170;-84
2022/09/23 21:35:56;;;;;;;33.67;27.10;;;;;;;;;;5096760;28;20186;-84
2022/09/23 21:38:23;;;;;;;33.03;29.07;;;;;;;;;;5100949;28;20206;-84
2022/09/23 21:40:56;;;;;;;31.70;28.03;;;;;;;;;;5107014;28;20213;-85
2022/09/23 21:43:22;;;;;;;33.80;28.70;;;;;;;;;;5096457;28;20185;-85
2022/09/23 21:45:48;;;;;;;34.23;29.93;;;;;;;;;;5079333;28;20182;-84
2022/09/23 21:48:15;;;;;;;34.30;30.23;;;;;;;;;;5088150;28;20284;-84
2022/09/23 21:50:41;;;;;;;32.53;28.20;;;;;;;;;;5072037;28;20213;-84
2022/09/23 21:53:07;;;;;;;31.33;27.50;;;;;;;;;;5089249;28;20195;-85
2022/09/23 21:55:33;;;;;;;32.77;27.77;;;;;;;;;;5098968;28;20210;-85
2022/09/23 21:57:59;;;;;;;31.23;27.53;;;;;;;;;;5058578;28;20288;-85
2022/09/23 22:00:25;;;;;;;35.27;28.93;;;;;;;;;;5077858;28;20183;-80
2022/09/23 22:02:52;;;;;;;31.33;27.63;;;;;;;;;;5075917;28;20185;-80
2022/09/23 22:05:18;;;;;;;34.43;29.37;;;;;;;;;;5068090;28;20270;-80
2022/09/23 22:07:44;;;;;;;34.87;29.17;;;;;;;;;;5080900;28;20186;-80
2022/09/23 22:10:10;;;;;;;32.20;28.23;;;;;;;;;;5089053;28;20201;-80
2022/09/23 22:12:38;;;;;;;33.63;29.17;;;;;;;;;;5075584;28;20194;-80
2022/09/23 22:15:05;;;;;;;34.10;29.47;;;;;;;;;;5078044;28;20182;-80
2022/09/23 22:17:31;;;;;;;31.57;28.17;;;;;;;;;;5077511;28;20206;-82
2022/09/23 22:19:57;;;;;;;30.87;27.53;;;;;;;;;;5113098;27;20187;-82
2022/09/23 22:22:24;;;;;;;32.93;28.73;;;;;;;;;;5088784;28;20189;-82
2022/09/23 22:24:50;;;;;;;32.63;29.23;;;;;;;;;;5098121;28;20205;-82
2022/09/23 22:27:18;;;;;;;34.80;29.87;;;;;;;;;;5084546;28;20183;-83
2022/09/23 22:32:40;;;;;;;34.43;30.33;;;;;;;;;;5076430;28;20290;-85
2022/09/23 22:35:11;;;;;;;35.37;29.70;;;;;;;;;;5079620;28;20190;-85
2022/09/23 22:37:37;;;;;;;35.37;30.50;;;;;;;;;;5096032;28;20206;-85
2022/09/23 22:40:04;;;;;;;33.03;29.43;;;;;;;;;;5076211;28;20307;-86
2022/09/23 22:42:30;;;;;;;36.17;30.93;;;;;;;;;;5082058;28;20182;-85
2022/09/23 22:44:57;;;;;;;36.00;31.47;;;;;;;;;;5096337;28;20253;-85
2022/09/23 22:47:23;;;;;;;34.87;31.17;;;;;;;;;;5075646;28;20235;-85
2022/09/23 22:49:54;;;;;;;36.80;31.00;;;;;;;;;;5095906;28;20236;-81
2022/09/23 22:52:23;;;;;;;34.97;30.63;;;;;;;;;;5076744;28;20273;-81
2022/09/23 22:54:50;;;;;;;40.03;31.90;;;;;;;;;;5077806;28;20196;-81
2022/09/23 22:57:16;;;;;;;35.83;30.77;;;;;;;;;;5095303;28;20194;-81
2022/09/23 22:59:46;;;;;;;34.67;30.93;;;;;;;;;;5091521;28;20189;-81
2022/09/23 23:02:14;;;;;;;39.30;30.73;;;;;;;;;;5095322;28;20178;-81
2022/09/23 23:04:40;;;;;;;36.03;30.70;;;;;;;;;;5092150;28;20232;-81
2022/09/23 23:07:07;;;;;;;35.40;31.33;;;;;;;;;;5092589;28;20191;-81
2022/09/23 23:09:34;;;;;;;34.23;30.50;;;;;;;;;;5093140;28;20274;-81
2022/09/23 23:12:01;;;;;;;36.20;31.57;;;;;;;;;;5089813;28;20194;-81
2022/09/23 23:14:30;;;;;;;34.30;30.60;;;;;;;;;;5087715;28;20190;-81
2022/09/23 23:16:56;;;;;;;36.10;31.13;;;;;;;;;;5074592;28;20245;-81
2022/09/23 23:19:22;;;;;;;36.60;30.50;;;;;;;;;;5079823;28;20183;-81
2022/09/23 23:21:49;;;;;;;34.30;30.47;;;;;;;;;;5116477;27;20178;-81
2022/09/23 23:24:16;;;;;;;34.47;30.87;;;;;;;;;;5112741;28;20205;-81
2022/09/23 23:26:42;;;;;;;36.60;31.80;;;;;;;;;;5094461;28;20289;-81
2022/09/23 23:29:09;;;;;;;36.87;31.33;;;;;;;;;;5080602;28;20237;-81
2022/09/23 23:31:35;;;;;;;35.50;30.67;;;;;;;;;;5124446;27;20191;-81
2022/09/23 23:34:01;;;;;;;34.63;30.87;;;;;;;;;;5094129;28;20206;-81
2022/09/23 23:36:29;;;;;;;35.40;30.80;;;;;;;;;;5093725;28;20264;-81
2022/09/23 23:38:55;;;;;;;34.07;30.47;;;;;;;;;;5093445;28;20217;-80
2022/09/23 23:41:22;;;;;;;35.70;31.80;;;;;;;;;;5078763;28;20178;-83
2022/09/23 23:43:53;;;;;;;35.83;31.43;;;;;;;;;;5094355;28;20236;-83
2022/09/23 23:46:20;;;;;;;35.23;31.50;;;;;;;;;;5081923;28;20194;-83
2022/09/23 23:48:48;;;;;;;37.57;31.97;;;;;;;;;;5107972;28;20223;-84
2022/09/23 23:51:14;;;;;;;34.83;30.57;;;;;;;;;;5074852;28;20187;-83
2022/09/23 23:53:41;;;;;;;34.37;30.63;;;;;;;;;;5092029;28;20187;-84
2022/09/23 23:56:11;;;;;;;37.07;31.37;;;;;;;;;;5115068;27;20209;-81
2022/09/23 23:58:37;;;;;;;35.00;30.83;;;;;;;;;;5091744;28;20214;-81
